Oval Lp No.11 — JL6306 — position and weather

sailwx.info

Track history (hours):
 
Tides and Currents Weather Stations Pressure Air Temp Water Temp Dewpoint Dewpoint Depression Visibility Wind Speed Wind Dir Waves Ship Positions

Oval Lp No.11

Last reported at 2014-Oct-31 10:06 UTC. Time now 2014-Oct-31 13:29 UTC.
Position N 35°12' E 139°46'.

Length 67 m; draft 3.6 m.

Type: Ship (hazmat cat A). MMSI: 431500366.

Date/timePositionNaut miles runAvg speedWind from/ knotsBaromVisibWave heightAir tempDewpointWater temp
2014-Oct-31 10:06N 35°12' E 139°46'611.1
2014-Oct-31 09:33N 35°18' E 139°44'10 9.7
2014-Oct-31 08:33N 35°27' E 139°47'1311.3
2014-Oct-31 07:24N 35°33' E 140°02'3 0.6
2014-Oct-31 02:33N 35°33' E 140°05'8 0.3
2014-Oct-29 22:27N 35°29' E 139°56'0 0.0
2014-Oct-29 21:33N 35°29' E 139°56'0 0.0
2014-Oct-29 20:24N 35°29' E 139°56'0 0.0
2014-Oct-29 19:30N 35°29' E 139°56'0 0.0
2014-Oct-29 18:33N 35°29' E 139°56'0 0.0
2014-Oct-29 16:30N 35°29' E 139°56'0 0.0
2014-Oct-29 15:33N 35°29' E 139°56'0 0.0
2014-Oct-29 14:27N 35°29' E 139°56'3 0.8
2014-Oct-29 10:33N 35°28' E 139°52'1211.9
2014-Oct-29 09:33N 35°18' E 139°44'246 9.9
2014-Oct-28 08:33N 34°01' E 134°60'1312.8
2014-Oct-28 07:33N 34°14' E 134°59'1312.4
2014-Oct-28 06:32N 34°26' E 135°06'1212.5
2014-Oct-28 05:33N 34°33' E 135°17'7 6.8
2014-Oct-28 04:33N 34°34' E 135°26'0 0.0
2014-Oct-28 03:25N 34°34' E 135°26'0 0.0
2014-Oct-28 02:25N 34°34' E 135°26'0 0.0
2014-Oct-28 01:25N 34°34' E 135°26'0 0.0
2014-Oct-28 00:31N 34°34' E 135°26'0 0.0
2014-Oct-27 23:31N 34°34' E 135°26'0 0.4
2014-Oct-27 22:33N 34°35' E 135°25'2 2.1
2014-Oct-27 21:30N 34°36' E 135°23'0 0.0
2014-Oct-27 20:30N 34°36' E 135°23'0 0.0
2014-Oct-27 19:30N 34°36' E 135°23'0 0.0
2014-Oct-27 18:24N 34°36' E 135°23'0 0.0
2014-Oct-27 17:30N 34°36' E 135°23'0 0.0
2014-Oct-27 16:30N 34°36' E 135°23'0 0.0
2014-Oct-27 15:30N 34°36' E 135°23'0 0.5
2014-Oct-27 14:33N 34°35' E 135°23'1110.8
2014-Oct-27 13:33N 34°28' E 135°13'1110.5
2014-Oct-27 12:32N 34°21' E 135°03'9 9.7
2014-Oct-27 11:33N 34°12' E 134°60'240 9.1
2014-Oct-26 09:11N 35°08' E 139°43'711.4
2014-Oct-26 08:33N 35°15' E 139°46'9 9.1
2014-Oct-26 07:33N 35°24' E 139°44'0 0.0
2014-Oct-26 06:33N 35°24' E 139°44'0 0.0
2014-Oct-26 05:33N 35°24' E 139°44'0 0.0
2014-Oct-26 04:33N 35°24' E 139°44'1010.0
2014-Oct-26 03:31N 35°31' E 139°54'7 1.4
2014-Oct-25 22:23N 35°33' E 140°02'7 7.8
2014-Oct-25 21:31N 35°29' E 139°55'0 0.0
2014-Oct-25 20:10N 35°29' E 139°55'0 0.0
2014-Oct-25 19:31N 35°29' E 139°55'0 0.0
2014-Oct-25 18:30N 35°29' E 139°55'0 0.1
2014-Oct-25 17:30N 35°29' E 139°55'1 0.8
2014-Oct-25 16:33N 35°29' E 139°54'1211.8
2014-Oct-25 15:33N 35°21' E 139°45'1110.8
2014-Oct-25 14:33N 35°10' E 139°46'24610.0
2014-Oct-24 14:04N 34°01' E 134°59'712.1
2014-Oct-24 13:31N 34°08' E 134°59'1211.6
2014-Oct-24 12:31N 34°20' E 134°59'1111.5
2014-Oct-24 11:33N 34°28' E 135°08'1212.3
2014-Oct-24 10:33N 34°35' E 135°20'5 4.3
2014-Oct-24 09:29N 34°34' E 135°26'0 0.0
2014-Oct-24 08:29N 34°34' E 135°26'0 0.0
2014-Oct-24 07:29N 34°34' E 135°26'0 0.3
2014-Oct-24 06:33N 34°35' E 135°25'2 2.0
2014-Oct-24 05:22N 34°36' E 135°23'0 0.0
2014-Oct-24 03:28N 34°36' E 135°23'3 0.9
2014-Oct-24 00:19N 34°34' E 135°25'0 0.0
2014-Oct-23 23:23N 34°34' E 135°25'2 0.3
2014-Oct-23 16:33N 34°34' E 135°23'0 0.0
2014-Oct-23 10:33N 34°34' E 135°23'2 1.9
2014-Oct-23 09:29N 34°34' E 135°26'0 0.0
2014-Oct-23 08:23N 34°34' E 135°26'0 0.0
2014-Oct-23 07:33N 34°34' E 135°26'7 6.8
2014-Oct-23 06:34N 34°32' E 135°18'1110.8
2014-Oct-23 05:31N 34°24' E 135°08'11 9.6
2014-Oct-23 04:20N 34°15' E 134°60'1010.6
2014-Oct-23 03:22N 34°05' E 135°01'  
Track history (hours):
 
Tides and Currents Weather Stations Pressure Air Temp Water Temp Dewpoint Dewpoint Depression Visibility Wind Speed Wind Dir Waves Ship Positions

Oval Lp No.11

Last reported at 2014-Oct-31 10:06 UTC. Time now 2014-Oct-31 13:29 UTC.
Position N 35°12' E 139°46'.

Length 67 m; draft 3.6 m.

Type: Ship (hazmat cat A). MMSI: 431500366.

Date/timePositionNaut miles runAvg speedWind from/ knotsBaromVisibWave heightAir tempDewpointWater temp
2014-Oct-31 10:06N 35°12' E 139°46'611.1
2014-Oct-31 09:33N 35°18' E 139°44'10 9.7
2014-Oct-31 08:33N 35°27' E 139°47'1311.3
2014-Oct-31 07:24N 35°33' E 140°02'3 0.6
2014-Oct-31 02:33N 35°33' E 140°05'8 0.3
2014-Oct-29 22:27N 35°29' E 139°56'0 0.0
2014-Oct-29 21:33N 35°29' E 139°56'0 0.0
2014-Oct-29 20:24N 35°29' E 139°56'0 0.0
2014-Oct-29 19:30N 35°29' E 139°56'0 0.0
2014-Oct-29 18:33N 35°29' E 139°56'0 0.0
2014-Oct-29 16:30N 35°29' E 139°56'0 0.0
2014-Oct-29 15:33N 35°29' E 139°56'0 0.0
2014-Oct-29 14:27N 35°29' E 139°56'3 0.8
2014-Oct-29 10:33N 35°28' E 139°52'1211.9
2014-Oct-29 09:33N 35°18' E 139°44'246 9.9
2014-Oct-28 08:33N 34°01' E 134°60'1312.8
2014-Oct-28 07:33N 34°14' E 134°59'1312.4
2014-Oct-28 06:32N 34°26' E 135°06'1212.5
2014-Oct-28 05:33N 34°33' E 135°17'7 6.8
2014-Oct-28 04:33N 34°34' E 135°26'0 0.0
2014-Oct-28 03:25N 34°34' E 135°26'0 0.0
2014-Oct-28 02:25N 34°34' E 135°26'0 0.0
2014-Oct-28 01:25N 34°34' E 135°26'0 0.0
2014-Oct-28 00:31N 34°34' E 135°26'0 0.0
2014-Oct-27 23:31N 34°34' E 135°26'0 0.4
2014-Oct-27 22:33N 34°35' E 135°25'2 2.1
2014-Oct-27 21:30N 34°36' E 135°23'0 0.0
2014-Oct-27 20:30N 34°36' E 135°23'0 0.0
2014-Oct-27 19:30N 34°36' E 135°23'0 0.0
2014-Oct-27 18:24N 34°36' E 135°23'0 0.0
2014-Oct-27 17:30N 34°36' E 135°23'0 0.0
2014-Oct-27 16:30N 34°36' E 135°23'0 0.0
2014-Oct-27 15:30N 34°36' E 135°23'0 0.5
2014-Oct-27 14:33N 34°35' E 135°23'1110.8
2014-Oct-27 13:33N 34°28' E 135°13'1110.5
2014-Oct-27 12:32N 34°21' E 135°03'9 9.7
2014-Oct-27 11:33N 34°12' E 134°60'240 9.1
2014-Oct-26 09:11N 35°08' E 139°43'711.4
2014-Oct-26 08:33N 35°15' E 139°46'9 9.1
2014-Oct-26 07:33N 35°24' E 139°44'0 0.0
2014-Oct-26 06:33N 35°24' E 139°44'0 0.0
2014-Oct-26 05:33N 35°24' E 139°44'0 0.0
2014-Oct-26 04:33N 35°24' E 139°44'1010.0
2014-Oct-26 03:31N 35°31' E 139°54'7 1.4
2014-Oct-25 22:23N 35°33' E 140°02'7 7.8
2014-Oct-25 21:31N 35°29' E 139°55'0 0.0
2014-Oct-25 20:10N 35°29' E 139°55'0 0.0
2014-Oct-25 19:31N 35°29' E 139°55'0 0.0
2014-Oct-25 18:30N 35°29' E 139°55'0 0.1
2014-Oct-25 17:30N 35°29' E 139°55'1 0.8
2014-Oct-25 16:33N 35°29' E 139°54'1211.8
2014-Oct-25 15:33N 35°21' E 139°45'1110.8
2014-Oct-25 14:33N 35°10' E 139°46'24610.0
2014-Oct-24 14:04N 34°01' E 134°59'712.1
2014-Oct-24 13:31N 34°08' E 134°59'1211.6
2014-Oct-24 12:31N 34°20' E 134°59'1111.5
2014-Oct-24 11:33N 34°28' E 135°08'1212.3
2014-Oct-24 10:33N 34°35' E 135°20'5 4.3
2014-Oct-24 09:29N 34°34' E 135°26'0 0.0
2014-Oct-24 08:29N 34°34' E 135°26'0 0.0
2014-Oct-24 07:29N 34°34' E 135°26'0 0.3
2014-Oct-24 06:33N 34°35' E 135°25'2 2.0
2014-Oct-24 05:22N 34°36' E 135°23'0 0.0
2014-Oct-24 03:28N 34°36' E 135°23'3 0.9
2014-Oct-24 00:19N 34°34' E 135°25'0 0.0
2014-Oct-23 23:23N 34°34' E 135°25'2 0.3
2014-Oct-23 16:33N 34°34' E 135°23'0 0.0
2014-Oct-23 10:33N 34°34' E 135°23'2 1.9
2014-Oct-23 09:29N 34°34' E 135°26'0 0.0
2014-Oct-23 08:23N 34°34' E 135°26'0 0.0
2014-Oct-23 07:33N 34°34' E 135°26'7 6.8
2014-Oct-23 06:34N 34°32' E 135°18'1110.8
2014-Oct-23 05:31N 34°24' E 135°08'11 9.6
2014-Oct-23 04:20N 34°15' E 134°60'1010.6
2014-Oct-23 03:22N 34°05' E 135°01'  

Dump ship's entire track history